Time;durP1;ratioP1;P1;durP2;ratioP2;P2;SDS_P1;SDS_P2;PMS_P1;PMS_P2;Temp;Humidity;BMP_temperature;BMP_pressure;BME280_temperature;BME280_humidity;BME280_pressure;Samples;Min_cycle;Max_cycle;Signal;HPM_P1;HPM_P2
2023/10/03 00:00:24;;;;;;;25.30;10.50;;;15.60;99.90;;;;;;5018612;28;20972;-66
2023/10/03 00:02:57;;;;;;;30.83;10.07;;;15.60;99.90;;;;;;5019866;28;20418;-66
2023/10/03 00:05:24;;;;;;;27.73;10.00;;;15.60;99.90;;;;;;5022158;28;20448;-66
2023/10/03 00:07:53;;;;;;;27.50;8.80;;;15.60;99.90;;;;;;5015923;28;20453;-66
2023/10/03 00:10:20;;;;;;;25.63;9.47;;;15.70;99.90;;;;;;5019306;28;20453;-66
2023/10/03 00:12:48;;;;;;;28.93;10.57;;;15.70;99.90;;;;;;5016030;28;20446;-66
2023/10/03 00:15:17;;;;;;;35.07;11.03;;;15.80;99.90;;;;;;5016837;28;20421;-66
2023/10/03 00:17:44;;;;;;;28.60;11.23;;;16.00;99.90;;;;;;5016986;28;20443;-66
2023/10/03 00:20:12;;;;;;;31.43;10.80;;;16.00;99.90;;;;;;5018156;28;20435;-66
2023/10/03 00:22:39;;;;;;;37.20;12.10;;;16.00;99.90;;;;;;5020095;28;20517;-66
2023/10/03 00:25:07;;;;;;;35.57;11.00;;;16.10;99.90;;;;;;5017284;28;20917;-66
2023/10/03 00:27:35;;;;;;;41.53;10.50;;;16.10;99.90;;;;;;5019158;28;20436;-66
2023/10/03 00:30:03;;;;;;;33.73;12.00;;;16.20;99.90;;;;;;5019486;28;20782;-66
2023/10/03 00:32:30;;;;;;;40.57;11.57;;;16.30;99.90;;;;;;5020765;28;20472;-66
2023/10/03 00:34:56;;;;;;;34.60;12.97;;;16.30;99.90;;;;;;5020506;28;20421;-66
2023/10/03 00:37:23;;;;;;;40.73;11.70;;;16.30;99.90;;;;;;5020491;28;20441;-66
2023/10/03 00:39:48;;;;;;;38.97;13.03;;;16.40;99.90;;;;;;5027031;28;20656;-66
2023/10/03 00:42:15;;;;;;;35.70;11.07;;;16.40;99.90;;;;;;5020697;28;20510;-66
2023/10/03 00:44:41;;;;;;;38.07;10.17;;;16.30;99.90;;;;;;5016125;28;20531;-66
2023/10/03 00:47:07;;;;;;;37.33;11.67;;;16.30;99.90;;;;;;5019956;28;20444;-66
2023/10/03 00:49:35;;;;;;;34.77;10.77;;;16.20;99.90;;;;;;5024278;28;20634;-66
2023/10/03 00:52:01;;;;;;;31.50;9.57;;;16.10;99.90;;;;;;5019567;28;20412;-66
2023/10/03 00:54:27;;;;;;;42.30;12.30;;;16.00;99.90;;;;;;5018033;28;20475;-66
2023/10/03 00:56:53;;;;;;;24.67;10.47;;;16.00;99.90;;;;;;5026038;28;20409;-66
2023/10/03 00:59:19;;;;;;;29.93;9.83;;;16.00;99.90;;;;;;5019684;28;20448;-66
2023/10/03 01:01:46;;;;;;;37.00;10.40;;;15.90;99.90;;;;;;5026637;28;20214;-66
2023/10/03 01:04:19;;;;;;;42.00;10.60;;;15.90;99.90;;;;;;5017570;28;20179;-66
2023/10/03 01:06:47;;;;;;;29.77;10.13;;;15.80;99.90;;;;;;5024055;28;20472;-66
2023/10/03 01:09:24;;;;;;;34.37;10.23;;;15.70;99.90;;;;;;5017081;28;21045;-66
2023/10/03 01:11:52;;;;;;;36.33;11.07;;;15.60;99.90;;;;;;5025360;28;20410;-65
2023/10/03 01:14:18;;;;;;;44.20;13.27;;;15.60;99.90;;;;;;5015774;28;20423;-64
2023/10/03 01:16:45;;;;;;;25.83;10.70;;;15.50;99.90;;;;;;5024032;28;20414;-64
2023/10/03 01:21:36;;;;;;;23.60;9.17;;;15.30;99.90;;;;;;5021991;28;20881;-64
2023/10/03 01:24:06;;;;;;;27.63;10.43;;;15.30;99.90;;;;;;5015053;28;20631;-65
2023/10/03 01:26:31;;;;;;;30.40;10.50;;;15.20;99.90;;;;;;5020707;28;21061;-64
2023/10/03 01:28:58;;;;;;;34.90;9.87;;;15.20;99.90;;;;;;5013815;28;20566;-64
2023/10/03 01:31:24;;;;;;;29.60;11.40;;;15.10;99.90;;;;;;5018427;28;20221;-65
2023/10/03 01:33:50;;;;;;;30.40;9.80;;;15.00;99.90;;;;;;5019587;28;21026;-65
2023/10/03 01:36:19;;;;;;;30.00;11.33;;;15.00;99.90;;;;;;5027207;28;20178;-65
2023/10/03 01:38:45;;;;;;;25.73;11.40;;;14.90;99.90;;;;;;5021602;28;20541;-65
2023/10/03 01:41:13;;;;;;;29.40;10.37;;;14.80;99.90;;;;;;5024819;28;20961;-65
2023/10/03 01:43:43;;;;;;;25.27;9.40;;;14.90;99.90;;;;;;5013867;28;20434;-65
2023/10/03 01:46:09;;;;;;;30.90;10.63;;;15.00;99.90;;;;;;5022451;28;20421;-65
2023/10/03 01:48:35;;;;;;;35.33;12.00;;;15.10;99.90;;;;;;5015246;28;20469;-65
2023/10/03 01:51:02;;;;;;;30.43;9.13;;;15.20;99.90;;;;;;5022090;28;20406;-65
2023/10/03 01:53:29;;;;;;;25.50;9.80;;;15.40;99.90;;;;;;5018908;28;20628;-65
2023/10/03 01:55:58;;;;;;;32.10;10.00;;;15.50;99.90;;;;;;5024785;28;20496;-65
2023/10/03 01:58:24;;;;;;;24.80;9.23;;;15.60;99.90;;;;;;5019892;28;20409;-65
2023/10/03 02:00:50;;;;;;;18.53;8.73;;;15.60;99.90;;;;;;5024166;28;20929;-65
2023/10/03 02:03:18;;;;;;;28.80;8.53;;;15.60;99.90;;;;;;5016616;28;20198;-65
2023/10/03 02:05:44;;;;;;;28.90;9.90;;;15.50;99.90;;;;;;5021865;28;20926;-65
2023/10/03 02:08:17;;;;;;;28.70;10.17;;;15.40;99.90;;;;;;5017332;28;20466;-65
2023/10/03 02:10:47;;;;;;;27.50;10.53;;;15.40;99.90;;;;;;5021626;28;20505;-65
2023/10/03 02:13:21;;;;;;;27.13;9.73;;;15.40;99.90;;;;;;5017118;28;20419;-65
2023/10/03 02:15:58;;;;;;;22.87;8.70;;;15.20;99.90;;;;;;5018335;28;20422;-65
2023/10/03 02:18:24;;;;;;;24.53;8.90;;;15.20;99.90;;;;;;5014985;28;20417;-65
2023/10/03 02:21:01;;;;;;;24.60;10.30;;;15.10;99.90;;;;;;5017457;28;20577;-65
2023/10/03 02:23:27;;;;;;;21.23;9.50;;;15.10;99.90;;;;;;5015930;28;20195;-65
2023/10/03 02:26:04;;;;;;;16.43;8.03;;;15.10;99.90;;;;;;5017070;28;20836;-65
2023/10/03 02:28:31;;;;;;;24.30;9.63;;;15.20;99.90;;;;;;5022300;28;20465;-65
2023/10/03 02:30:57;;;;;;;30.33;9.57;;;15.40;99.90;;;;;;5016405;28;20462;-65
2023/10/03 02:33:23;;;;;;;16.33;7.43;;;15.50;99.90;;;;;;5021738;28;20452;-65
2023/10/03 02:35:50;;;;;;;21.53;8.20;;;15.70;99.90;;;;;;5023313;28;20457;-65
2023/10/03 02:38:29;;;;;;;26.70;8.40;;;15.80;99.90;;;;;;5021127;28;20446;-65
2023/10/03 02:40:59;;;;;;;24.57;8.30;;;15.80;99.90;;;;;;5023907;28;20421;-65
2023/10/03 02:43:26;;;;;;;35.23;9.10;;;16.00;99.90;;;;;;5018605;28;20488;-65
2023/10/03 02:45:52;;;;;;;24.57;8.20;;;16.10;99.90;;;;;;5021920;28;20517;-65
2023/10/03 02:48:20;;;;;;;20.60;7.47;;;16.20;99.90;;;;;;5018033;28;20837;-65
2023/10/03 02:50:47;;;;;;;17.27;7.30;;;16.30;99.90;;;;;;5020480;28;20175;-65
2023/10/03 02:53:20;;;;;;;18.50;7.53;;;16.50;99.90;;;;;;5018088;28;20520;-65
2023/10/03 02:55:47;;;;;;;26.63;7.53;;;16.60;99.90;;;;;;5022105;28;20472;-65
2023/10/03 02:58:14;;;;;;;27.50;7.30;;;16.70;99.90;;;;;;5022494;28;20802;-65
2023/10/03 03:00:46;;;;;;;22.50;8.40;;;16.90;99.90;;;;;;5021946;28;20437;-65
2023/10/03 03:03:12;;;;;;;14.03;6.13;;;16.90;99.90;;;;;;5019337;28;20448;-66
2023/10/03 03:05:42;;;;;;;28.23;6.67;;;17.00;99.90;;;;;;5019766;28;20516;-65
2023/10/03 03:10:44;;;;;;;26.33;7.03;;;17.10;99.90;;;;;;5020092;28;21487;-65
2023/10/03 03:13:13;;;;;;;17.23;6.33;;;17.10;99.90;;;;;;5026829;28;20422;-65
2023/10/03 03:15:44;;;;;;;19.97;7.20;;;17.10;99.90;;;;;;5015702;28;20890;-65
2023/10/03 03:18:09;;;;;;;16.17;6.30;;;17.20;99.90;;;;;;5016295;28;20898;-65
2023/10/03 03:20:41;;;;;;;16.80;6.77;;;17.20;99.90;;;;;;5014604;28;20418;-65
2023/10/03 03:23:10;;;;;;;28.40;7.73;;;17.20;99.90;;;;;;5015895;28;20493;-65
2023/10/03 03:25:39;;;;;;;22.83;8.67;;;17.20;99.90;;;;;;5013620;28;20899;-65
2023/10/03 03:28:12;;;;;;;17.90;6.43;;;17.20;99.90;;;;;;5015469;28;20413;-65
2023/10/03 03:30:55;;;;;;;22.90;7.20;;;17.20;99.90;;;;;;5019659;28;20461;-65
2023/10/03 03:33:21;;;;;;;30.53;8.43;;;17.20;99.90;;;;;;5017365;28;20429;-65
2023/10/03 03:35:50;;;;;;;20.17;7.93;;;17.30;99.90;;;;;;5021289;28;20453;-65
2023/10/03 03:38:18;;;;;;;16.93;6.20;;;17.30;99.90;;;;;;5013899;28;20442;-65
2023/10/03 03:40:53;;;;;;;17.73;7.10;;;17.40;99.90;;;;;;5022376;28;20519;-66
2023/10/03 03:43:21;;;;;;;21.13;8.23;;;17.40;99.90;;;;;;5017228;28;20436;-66
2023/10/03 03:45:48;;;;;;;16.37;6.87;;;17.40;99.90;;;;;;5019608;28;20422;-66
2023/10/03 03:48:14;;;;;;;16.70;6.97;;;17.50;99.90;;;;;;5013788;28;20902;-66
2023/10/03 03:50:39;;;;;;;33.47;8.30;;;17.40;99.90;;;;;;5019875;28;20448;-66
2023/10/03 03:53:06;;;;;;;24.77;6.97;;;17.40;99.90;;;;;;5017705;28;20528;-66
2023/10/03 03:55:34;;;;;;;21.67;7.67;;;17.50;99.90;;;;;;5026998;28;20174;-66
2023/10/03 03:58:03;;;;;;;18.60;8.33;;;17.60;99.90;;;;;;5025552;28;20885;-66
2023/10/03 04:00:31;;;;;;;19.30;5.87;;;17.60;99.90;;;;;;5030021;28;20424;-66
2023/10/03 04:02:57;;;;;;;19.73;6.23;;;17.60;99.90;;;;;;5026747;28;20424;-66
2023/10/03 04:05:25;;;;;;;22.83;6.23;;;17.70;99.90;;;;;;5025278;28;20905;-66
2023/10/03 04:07:51;;;;;;;26.10;5.93;;;17.60;99.90;;;;;;5025319;28;20418;-66
2023/10/03 04:10:17;;;;;;;16.90;6.10;;;17.60;99.90;;;;;;5026564;28;20968;-67
2023/10/03 04:12:43;;;;;;;20.27;5.90;;;17.70;99.90;;;;;;5025093;28;20433;-65
2023/10/03 04:15:13;;;;;;;22.17;7.33;;;17.60;99.90;;;;;;5023655;28;20179;-64
2023/10/03 04:17:42;;;;;;;15.90;5.80;;;17.60;99.90;;;;;;5025850;28;20552;-65
2023/10/03 04:22:52;;;;;;;13.90;5.60;;;17.70;99.90;;;;;;5024636;28;20420;-64
2023/10/03 04:25:22;;;;;;;22.60;7.10;;;17.70;99.90;;;;;;5022440;28;20429;-64
2023/10/03 04:27:49;;;;;;;17.97;6.40;;;17.70;99.90;;;;;;5023295;28;20186;-64
2023/10/03 04:30:16;;;;;;;15.57;6.27;;;17.70;99.90;;;;;;5021277;28;20465;-64
2023/10/03 04:32:42;;;;;;;16.50;6.00;;;17.70;99.90;;;;;;5023696;28;20917;-65
2023/10/03 04:35:11;;;;;;;14.33;5.93;;;17.70;99.90;;;;;;5024230;28;20422;-64
2023/10/03 04:37:39;;;;;;;23.13;7.23;;;17.70;99.90;;;;;;5022407;28;20872;-65
2023/10/03 04:40:06;;;;;;;12.87;5.53;;;17.70;99.90;;;;;;5029788;28;20429;-65
2023/10/03 04:42:32;;;;;;;24.37;9.13;;;17.70;99.90;;;;;;5023707;28;20438;-65
2023/10/03 04:44:58;;;;;;;15.23;6.17;;;17.60;99.90;;;;;;5022275;28;20509;-64
2023/10/03 04:47:27;;;;;;;18.33;5.80;;;17.50;99.90;;;;;;5022774;28;20418;-65
2023/10/03 04:49:52;;;;;;;16.17;6.10;;;17.50;99.90;;;;;;5022978;28;20207;-64
2023/10/03 04:52:18;;;;;;;34.53;8.07;;;17.50;99.90;;;;;;5022458;28;20416;-65
2023/10/03 04:54:43;;;;;;;14.97;5.73;;;17.40;99.90;;;;;;5027985;28;20585;-65
2023/10/03 04:57:11;;;;;;;20.93;7.03;;;17.50;99.90;;;;;;5022444;28;20182;-64
2023/10/03 04:59:36;;;;;;;17.00;6.93;;;17.40;99.90;;;;;;5029751;28;20235;-64
2023/10/03 05:02:03;;;;;;;13.10;6.07;;;17.40;99.90;;;;;;5030892;28;20449;-64
2023/10/03 05:04:28;;;;;;;16.90;6.87;;;17.40;99.90;;;;;;5023774;28;20179;-64
2023/10/03 05:06:55;;;;;;;16.17;7.03;;;17.40;99.90;;;;;;5024532;28;20417;-64
2023/10/03 05:09:20;;;;;;;14.07;4.60;;;17.40;99.90;;;;;;5025007;28;20194;-64
2023/10/03 05:11:48;;;;;;;12.50;5.43;;;17.40;99.90;;;;;;5023612;28;20468;-64
2023/10/03 05:14:17;;;;;;;25.60;5.40;;;17.40;99.90;;;;;;5022830;28;20171;-64
2023/10/03 05:16:42;;;;;;;15.40;5.57;;;17.40;99.90;;;;;;5022212;28;20421;-64
2023/10/03 05:19:09;;;;;;;17.77;5.40;;;17.40;99.90;;;;;;5021181;28;20464;-64
2023/10/03 05:21:38;;;;;;;15.83;6.30;;;17.30;99.90;;;;;;5021256;28;20695;-65
2023/10/03 05:24:04;;;;;;;14.60;6.87;;;17.30;99.90;;;;;;5015519;28;20453;-65
2023/10/03 05:26:30;;;;;;;19.07;6.17;;;17.20;99.90;;;;;;5025088;28;20758;-65
2023/10/03 05:28:55;;;;;;;22.57;7.10;;;17.20;99.90;;;;;;5014043;28;20468;-65
2023/10/03 05:31:23;;;;;;;15.13;6.83;;;17.20;99.90;;;;;;5019072;28;20182;-64
2023/10/03 05:33:48;;;;;;;15.60;6.57;;;17.30;99.90;;;;;;5014513;28;20218;-65
2023/10/03 05:36:16;;;;;;;15.10;5.80;;;17.20;99.90;;;;;;5025882;28;20421;-64
2023/10/03 05:38:42;;;;;;;14.67;6.53;;;17.30;99.90;;;;;;5014660;28;20633;-63
2023/10/03 05:41:21;;;;;;;10.17;4.60;;;17.30;99.90;;;;;;5024119;28;20473;-64
2023/10/03 05:43:48;;;;;;;13.60;5.23;;;17.40;99.90;;;;;;5014762;28;20988;-64
2023/10/03 05:46:14;;;;;;;12.47;5.70;;;17.40;99.90;;;;;;5023775;28;20531;-64
2023/10/03 05:48:39;;;;;;;11.83;5.33;;;17.30;99.90;;;;;;5012872;28;20552;-64
2023/10/03 05:51:05;;;;;;;11.33;4.13;;;17.40;99.90;;;;;;5025073;28;20642;-64
2023/10/03 05:53:31;;;;;;;15.33;6.10;;;17.50;99.90;;;;;;5013678;28;20230;-64
2023/10/03 05:55:58;;;;;;;15.10;5.50;;;17.40;99.90;;;;;;5023052;28;20410;-64
2023/10/03 05:58:23;;;;;;;13.50;5.70;;;17.40;99.90;;;;;;5023739;28;20421;-64
2023/10/03 06:00:49;;;;;;;16.70;5.53;;;17.50;99.90;;;;;;5022054;28;20463;-64
2023/10/03 06:03:15;;;;;;;13.30;4.60;;;17.40;99.90;;;;;;5019765;28;20249;-64
2023/10/03 06:05:42;;;;;;;13.33;5.07;;;17.40;99.90;;;;;;5020782;28;20293;-64
2023/10/03 06:08:12;;;;;;;18.20;4.83;;;17.50;99.90;;;;;;5021600;28;20887;-64
2023/10/03 06:10:41;;;;;;;13.83;4.57;;;17.50;99.90;;;;;;5023983;28;20440;-64
2023/10/03 06:13:10;;;;;;;10.47;4.27;;;17.50;99.90;;;;;;5012626;28;20410;-64
2023/10/03 06:15:37;;;;;;;22.07;5.60;;;17.60;99.90;;;;;;5019857;28;20828;-64
2023/10/03 06:18:04;;;;;;;15.90;5.20;;;17.60;99.90;;;;;;5017617;28;20489;-64
2023/10/03 06:20:30;;;;;;;11.13;4.27;;;17.70;99.90;;;;;;5017619;28;20513;-64
2023/10/03 06:22:56;;;;;;;13.57;5.43;;;17.80;99.90;;;;;;5018049;28;20493;-64
2023/10/03 06:25:23;;;;;;;11.40;4.50;;;17.70;99.90;;;;;;5019429;28;20509;-64
2023/10/03 06:27:48;;;;;;;12.50;4.90;;;17.70;99.90;;;;;;5017289;28;20167;-64
2023/10/03 06:30:14;;;;;;;7.80;4.03;;;17.70;99.90;;;;;;5019139;28;20511;-64
2023/10/03 06:32:41;;;;;;;16.20;5.20;;;17.80;99.90;;;;;;5021194;28;20190;-64
2023/10/03 06:35:09;;;;;;;14.90;5.87;;;17.70;99.90;;;;;;5017164;28;20213;-64
2023/10/03 06:37:35;;;;;;;15.20;4.53;;;17.80;99.90;;;;;;5016896;28;20758;-64
2023/10/03 06:40:01;;;;;;;14.80;5.47;;;17.90;99.90;;;;;;5026830;28;20432;-64
2023/10/03 06:42:27;;;;;;;12.83;5.17;;;18.00;99.90;;;;;;5018545;28;20563;-65
2023/10/03 06:44:52;;;;;;;10.47;4.80;;;18.10;99.90;;;;;;5021889;28;20476;-64
2023/10/03 06:47:20;;;;;;;12.20;3.93;;;18.10;99.90;;;;;;5017307;28;20441;-64
2023/10/03 06:49:46;;;;;;;15.97;4.80;;;18.20;99.90;;;;;;5020745;28;20234;-64
2023/10/03 06:52:11;;;;;;;13.00;4.40;;;18.30;99.90;;;;;;5019780;28;20426;-64
2023/10/03 06:54:38;;;;;;;9.23;3.60;;;18.40;99.90;;;;;;5021654;28;20178;-65
2023/10/03 06:57:04;;;;;;;14.43;5.63;;;18.50;99.80;;;;;;5024537;28;20286;-65
2023/10/03 06:59:30;;;;;;;12.67;5.00;;;18.60;99.70;;;;;;5022614;28;20447;-64
2023/10/03 07:01:56;;;;;;;15.00;4.57;;;18.70;99.70;;;;;;5027295;28;20422;-64
2023/10/03 07:04:21;;;;;;;12.00;4.10;;;18.80;99.50;;;;;;5017587;28;20186;-64
2023/10/03 07:06:50;;;;;;;9.77;4.43;;;18.80;99.30;;;;;;5023007;28;20518;-64
2023/10/03 07:09:17;;;;;;;14.90;4.47;;;18.90;99.20;;;;;;5015066;28;20237;-64
2023/10/03 07:11:42;;;;;;;15.87;5.63;;;19.00;99.40;;;;;;5015524;28;20467;-64
2023/10/03 07:14:15;;;;;;;13.73;5.03;;;19.00;99.80;;;;;;5020474;28;20437;-64
2023/10/03 07:16:42;;;;;;;7.97;4.13;;;19.20;99.00;;;;;;5018748;28;20189;-64
2023/10/03 07:19:14;;;;;;;12.20;5.37;;;19.40;99.10;;;;;;5012627;28;20460;-64
2023/10/03 07:21:40;;;;;;;8.27;4.40;;;19.50;98.80;;;;;;5018192;28;20511;-65
2023/10/03 07:24:06;;;;;;;12.83;4.50;;;19.70;98.40;;;;;;5010889;28;20428;-64
2023/10/03 07:26:32;;;;;;;12.27;4.13;;;20.00;97.70;;;;;;5020287;28;20417;-65
2023/10/03 07:29:00;;;;;;;8.00;3.83;;;20.20;97.30;;;;;;5011918;28;20549;-65
2023/10/03 07:31:25;;;;;;;11.43;4.30;;;20.40;97.10;;;;;;5014362;28;20178;-65
2023/10/03 07:33:52;;;;;;;9.77;4.30;;;20.70;96.50;;;;;;5020344;28;20501;-65
2023/10/03 07:36:17;;;;;;;12.50;4.40;;;21.00;96.10;;;;;;5024335;28;20615;-65
2023/10/03 07:38:45;;;;;;;12.83;4.10;;;21.30;95.40;;;;;;5016487;28;21181;-64
2023/10/03 07:41:21;;;;;;;6.90;3.40;;;21.50;95.00;;;;;;5020765;28;20284;-65
2023/10/03 07:43:47;;;;;;;10.80;3.30;;;22.00;94.40;;;;;;5010527;28;20461;-65
2023/10/03 07:46:25;;;;;;;14.07;5.23;;;22.30;93.90;;;;;;5018738;28;20425;-65
2023/10/03 07:48:53;;;;;;;12.40;4.10;;;22.70;93.10;;;;;;5009616;28;20465;-65
2023/10/03 07:51:20;;;;;;;13.67;3.60;;;22.90;93.00;;;;;;5017498;28;20492;-65
2023/10/03 07:53:47;;;;;;;6.50;2.73;;;23.40;92.20;;;;;;5010710;28;20929;-64
2023/10/03 07:56:30;;;;;;;8.93;3.50;;;23.30;92.00;;;;;;5035257;28;20825;-64
2023/10/03 07:59:02;;;;;;;12.73;4.30;;;23.40;92.10;;;;;;5017360;28;20474;-64
2023/10/03 08:01:29;;;;;;;7.23;3.30;;;23.50;91.90;;;;;;5021967;28;20461;-64
2023/10/03 08:03:56;;;;;;;9.47;3.80;;;23.50;91.30;;;;;;5013074;28;20434;-64
2023/10/03 08:06:23;;;;;;;6.93;3.10;;;23.40;91.40;;;;;;5022999;28;20743;-64
2023/10/03 08:08:52;;;;;;;10.87;3.33;;;23.40;91.70;;;;;;5011600;28;20588;-64
2023/10/03 08:11:22;;;;;;;10.77;3.83;;;23.50;91.60;;;;;;5019792;28;20768;-64
2023/10/03 08:13:49;;;;;;;7.00;2.80;;;23.50;91.00;;;;;;5015721;28;20436;-65
2023/10/03 08:16:15;;;;;;;7.63;3.30;;;23.50;91.20;;;;;;5018230;28;20417;-64
2023/10/03 08:18:46;;;;;;;8.63;3.57;;;23.80;90.90;;;;;;5017694;28;20452;-64
2023/10/03 08:21:12;;;;;;;15.37;4.37;;;24.20;90.80;;;;;;5016962;28;20451;-65
2023/10/03 08:23:38;;;;;;;8.70;3.10;;;24.30;91.00;;;;;;5011138;28;20428;-65
2023/10/03 08:26:04;;;;;;;11.73;4.20;;;24.30;90.30;;;;;;5018475;28;20424;-65
2023/10/03 08:28:30;;;;;;;8.40;3.60;;;24.50;90.10;;;;;;5010111;28;20213;-65
2023/10/03 08:30:57;;;;;;;8.77;3.80;;;24.70;90.60;;;;;;5021262;28;20266;-65
2023/10/03 08:33:22;;;;;;;12.40;4.20;;;24.80;90.40;;;;;;5013133;28;20886;-65
2023/10/03 08:35:49;;;;;;;9.27;3.43;;;24.80;90.20;;;;;;5021608;28;20426;-65
2023/10/03 08:38:14;;;;;;;7.67;3.23;;;25.10;90.20;;;;;;5011373;28;20195;-65
2023/10/03 08:40:42;;;;;;;22.33;4.60;;;25.50;89.90;;;;;;5024708;28;20423;-65
2023/10/03 08:43:10;;;;;;;5.90;2.97;;;25.70;88.30;;;;;;5014777;28;20585;-66
2023/10/03 08:45:52;;;;;;;8.80;3.30;;;25.90;88.90;;;;;;5021435;28;20451;-65
2023/10/03 08:48:30;;;;;;;5.37;2.90;;;25.90;88.80;;;;;;5018034;28;20761;-65
2023/10/03 08:50:59;;;;;;;10.43;4.27;;;26.00;88.30;;;;;;5025799;28;20427;-65
2023/10/03 08:53:28;;;;;;;6.47;2.83;;;25.90;88.90;;;;;;5019070;28;20175;-65
2023/10/03 08:55:58;;;;;;;8.13;3.37;;;26.10;86.90;;;;;;5027843;28;20456;-65
2023/10/03 08:58:25;;;;;;;7.03;3.37;;;25.90;88.50;;;;;;5023843;28;20568;-65
2023/10/03 09:00:58;;;;;;;6.23;3.30;;;25.80;88.40;;;;;;5025702;28;20182;-65
2023/10/03 09:03:25;;;;;;;6.97;3.00;;;25.80;88.40;;;;;;5017382;28;20417;-65
2023/10/03 09:05:51;;;;;;;8.20;3.17;;;25.90;88.00;;;;;;5023357;28;20229;-65
2023/10/03 09:08:17;;;;;;;5.03;2.93;;;26.00;87.40;;;;;;5017752;28;20589;-65
2023/10/03 09:10:51;;;;;;;11.23;3.83;;;26.50;87.20;;;;;;5023033;28;20417;-65
2023/10/03 09:13:25;;;;;;;8.37;2.90;;;26.40;86.30;;;;;;5023117;28;20186;-65
2023/10/03 09:15:59;;;;;;;11.73;3.28;;;26.60;86.60;;;;;;5020661;28;20183;-65
2023/10/03 09:18:42;;;;;;;5.75;2.88;;;26.80;85.30;;;;;;5013161;28;20679;-65
2023/10/03 09:21:23;;;;;;;5.47;2.38;;;27.20;84.00;;;;;;5020630;28;20181;-65
2023/10/03 09:24:01;;;;;;;5.85;2.90;;;26.70;85.20;;;;;;5013772;28;20513;-65
2023/10/03 09:26:45;;;;;;;6.10;2.77;;;26.30;86.30;;;;;;5020948;28;20193;-65
2023/10/03 09:29:30;;;;;;;6.83;3.07;;;26.00;87.30;;;;;;5015375;28;20209;-65
2023/10/03 09:32:17;;;;;;;6.83;3.00;;;25.90;88.20;;;;;;5024144;28;20185;-64
2023/10/03 09:34:44;;;;;;;8.07;3.93;;;25.80;88.40;;;;;;5019502;28;20188;-65
2023/10/03 09:37:11;;;;;;;11.53;3.60;;;25.80;88.40;;;;;;5024634;28;20469;-65
2023/10/03 09:39:47;;;;;;;7.30;3.07;;;25.80;87.90;;;;;;5020887;28;20432;-65
2023/10/03 09:42:18;;;;;;;6.00;2.77;;;25.80;88.40;;;;;;5022650;28;20429;-65
2023/10/03 09:44:46;;;;;;;7.33;3.03;;;25.60;89.50;;;;;;5016463;28;20536;-65
2023/10/03 09:47:13;;;;;;;5.03;2.60;;;25.60;89.20;;;;;;5020274;28;20819;-65
2023/10/03 09:49:39;;;;;;;5.70;2.67;;;25.70;89.30;;;;;;5017930;28;20575;-64
2023/10/03 09:52:26;;;;;;;7.20;2.67;;;25.80;88.50;;;;;;5018027;28;20417;-65
2023/10/03 09:54:59;;;;;;;5.80;2.53;;;26.00;89.60;;;;;;5018874;28;20771;-65
2023/10/03 09:57:28;;;;;;;8.23;2.90;;;26.20;88.10;;;;;;5024092;28;20425;-65
2023/10/03 09:59:55;;;;;;;7.90;3.20;;;26.30;88.00;;;;;;5022329;28;20456;-65
2023/10/03 10:02:35;;;;;;;9.87;2.77;;;26.20;88.20;;;;;;5025175;28;20516;-64
2023/10/03 10:05:19;;;;;;;8.23;3.13;;;26.20;89.20;;;;;;5020647;28;20516;-65
2023/10/03 10:08:08;;;;;;;6.03;3.33;;;26.30;88.80;;;;;;5023022;28;20448;-65
2023/10/03 10:10:35;;;;;;;15.73;2.80;;;26.50;88.30;;;;;;5020794;28;20465;-65
2023/10/03 10:13:24;;;;;;;7.40;3.23;;;26.60;87.60;;;;;;5018724;28;20839;-64
2023/10/03 10:16:11;;;;;;;8.07;3.17;;;26.50;88.70;;;;;;5019453;28;20426;-65
2023/10/03 10:18:43;;;;;;;8.77;3.27;;;26.20;88.80;;;;;;5022159;28;20436;-65
2023/10/03 10:21:31;;;;;;;6.27;2.80;;;25.90;89.00;;;;;;5020789;28;20437;-64
2023/10/03 10:24:20;;;;;;;4.63;2.60;;;25.80;89.80;;;;;;5023413;28;20424;-65
2023/10/03 10:26:54;;;;;;;5.73;2.87;;;25.60;90.00;;;;;;5019662;28;20475;-65
2023/10/03 10:29:24;;;;;;;7.17;2.50;;;25.80;89.80;;;;;;5014361;28;20460;-65
2023/10/03 10:32:00;;;;;;;7.53;3.40;;;25.70;90.00;;;;;;5017184;28;20413;-65
2023/10/03 10:34:32;;;;;;;6.93;2.90;;;25.60;89.80;;;;;;5018106;28;20967;-65
2023/10/03 10:37:02;;;;;;;8.67;3.10;;;25.50;90.00;;;;;;5022318;28;20469;-65
2023/10/03 10:40:09;;;;;;;7.77;3.33;;;25.20;90.40;;;;;;5023779;28;20486;-65
2023/10/03 10:42:59;;;;;;;12.43;3.13;;;25.10;90.50;;;;;;5017848;28;20468;-65
2023/10/03 10:45:26;;;;;;;5.30;2.97;;;25.40;90.50;;;;;;5020754;28;20890;-65
2023/10/03 10:47:54;;;;;;;9.40;3.27;;;25.50;89.90;;;;;;5015907;28;20420;-65
2023/10/03 10:50:25;;;;;;;9.67;2.73;;;25.90;89.40;;;;;;5027699;28;20510;-65
2023/10/03 10:53:02;;;;;;;7.33;3.33;;;26.20;89.30;;;;;;5012390;28;20863;-65
2023/10/03 10:55:28;;;;;;;8.37;3.30;;;26.40;88.00;;;;;;5023144;28;20963;-65
2023/10/03 10:58:12;;;;;;;6.50;2.80;;;26.50;87.70;;;;;;5020206;28;20409;-65
2023/10/03 11:00:39;;;;;;;7.47;3.43;;;26.50;88.10;;;;;;5023613;28;20446;-64
2023/10/03 11:03:06;;;;;;;5.93;2.67;;;26.60;88.20;;;;;;5010461;28;20414;-65
2023/10/03 11:05:45;;;;;;;7.40;3.03;;;26.50;88.00;;;;;;5019224;28;20177;-65
2023/10/03 11:08:11;;;;;;;5.63;2.73;;;26.40;89.00;;;;;;5011041;28;20413;-65
2023/10/03 11:10:53;;;;;;;11.43;3.33;;;26.50;88.90;;;;;;5019904;28;20749;-65
2023/10/03 11:13:20;;;;;;;7.80;3.10;;;26.60;89.30;;;;;;5011378;28;20262;-65
2023/10/03 11:15:53;;;;;;;6.47;3.50;;;26.90;88.20;;;;;;5019077;28;20460;-64
2023/10/03 11:18:29;;;;;;;10.97;3.30;;;26.80;87.30;;;;;;5015594;28;20197;-65
2023/10/03 11:20:59;;;;;;;9.30;3.00;;;26.80;87.50;;;;;;5017984;28;20261;-65
2023/10/03 11:23:25;;;;;;;7.43;2.60;;;26.60;88.80;;;;;;5014944;28;20538;-65
2023/10/03 11:25:58;;;;;;;4.57;2.07;;;26.50;87.20;;;;;;5014955;28;20910;-65
2023/10/03 11:28:30;;;;;;;6.87;2.70;;;26.10;89.20;;;;;;5014019;28;20175;-65
2023/10/03 11:31:01;;;;;;;5.20;2.60;;;26.10;89.10;;;;;;5019567;28;20437;-65
2023/10/03 11:33:27;;;;;;;5.00;2.30;;;26.10;88.60;;;;;;5022930;28;20766;-64
2023/10/03 11:35:53;;;;;;;9.13;3.90;;;26.10;89.80;;;;;;5025309;28;20426;-64
2023/10/03 11:38:19;;;;;;;7.67;3.40;;;26.00;89.90;;;;;;5011894;28;20574;-64
2023/10/03 11:40:47;;;;;;;7.77;3.73;;;26.10;89.60;;;;;;5024764;28;20984;-65
2023/10/03 11:43:19;;;;;;;5.13;2.50;;;26.20;89.30;;;;;;5011615;28;20179;-65
2023/10/03 11:45:55;;;;;;;8.97;3.13;;;26.20;89.40;;;;;;5022811;28;20463;-65
2023/10/03 11:48:22;;;;;;;6.83;3.27;;;26.50;88.30;;;;;;5011175;28;20520;-65
2023/10/03 11:50:49;;;;;;;19.53;3.60;;;26.40;87.80;;;;;;5023025;28;20432;-65
2023/10/03 11:53:15;;;;;;;4.70;2.50;;;26.60;88.80;;;;;;5017148;28;20496;-65
2023/10/03 11:55:42;;;;;;;7.53;2.80;;;26.70;87.70;;;;;;5020951;28;20596;-65
2023/10/03 11:58:10;;;;;;;4.73;2.80;;;26.80;87.50;;;;;;5018754;28;20420;-65
2023/10/03 12:00:36;;;;;;;3.93;2.60;;;26.70;87.70;;;;;;5023908;28;20224;-65
2023/10/03 12:03:04;;;;;;;7.00;2.53;;;26.20;88.50;;;;;;5020123;28;20908;-65
2023/10/03 12:05:29;;;;;;;7.57;3.20;;;26.20;90.00;;;;;;5020220;28;20504;-65
2023/10/03 12:07:56;;;;;;;7.73;3.60;;;26.00;90.10;;;;;;5020084;28;20425;-65
2023/10/03 12:10:30;;;;;;;24.83;3.50;;;26.10;89.70;;;;;;5019988;28;20213;-65
2023/10/03 12:12:56;;;;;;;8.07;4.60;;;25.90;89.90;;;;;;5017358;28;20441;-65
2023/10/03 12:15:23;;;;;;;4.50;2.30;;;25.90;89.30;;;;;;5022377;28;20467;-65
2023/10/03 12:17:50;;;;;;;7.60;3.20;;;26.10;89.60;;;;;;5027239;28;20182;-65
2023/10/03 12:20:18;;;;;;;9.50;2.90;;;26.10;89.50;;;;;;5018901;28;20436;-65
2023/10/03 12:22:50;;;;;;;9.70;4.10;;;26.20;89.50;;;;;;5020250;28;20467;-64
2023/10/03 12:25:18;;;;;;;8.07;3.20;;;26.00;90.30;;;;;;5020932;28;20464;-65
2023/10/03 12:27:45;;;;;;;6.90;2.73;;;25.90;90.40;;;;;;5019555;28;20432;-66
2023/10/03 12:30:14;;;;;;;13.13;3.33;;;25.70;90.70;;;;;;5018018;28;20920;-65
2023/10/03 12:32:43;;;;;;;7.87;3.87;;;25.40;91.10;;;;;;5018558;28;20478;-65
2023/10/03 12:35:10;;;;;;;6.43;2.80;;;25.00;91.80;;;;;;5022344;28;20459;-65
2023/10/03 12:37:36;;;;;;;17.33;3.20;;;25.00;91.80;;;;;;5020247;28;20525;-65
2023/10/03 12:40:13;;;;;;;7.73;3.30;;;24.80;92.30;;;;;;5023135;28;20477;-65
2023/10/03 12:42:47;;;;;;;8.53;3.47;;;24.80;92.40;;;;;;5019418;28;20425;-65
2023/10/03 12:45:16;;;;;;;15.30;3.10;;;24.50;92.50;;;;;;5016628;28;21173;-66
2023/10/03 12:48:03;;;;;;;7.60;3.23;;;24.40;92.90;;;;;;5028541;28;20432;-65
2023/10/03 12:50:27;;;;;;;8.53;3.90;;;24.40;93.20;;;;;;5017158;28;20815;-64
2023/10/03 12:52:55;;;;;;;8.30;3.37;;;24.50;92.60;;;;;;5025735;28;20500;-65
2023/10/03 12:55:25;;;;;;;11.90;4.30;;;24.40;92.80;;;;;;5021086;28;20182;-65